Tillett Field (1S3)
Forsyth, MT
Field Elevation: 2727
Lat: 46°16.27N  Long: 106°37.43W
CTAF/Unicom Freq: 122.8000
   
     For Weather-by-Phone, call (406) 346-2571
Weather Advisories
2019-06-24   23:38 Z
Altimeter 29.80" Hg
Wind 310° @ 15 KT
Gusts 18 KT
Visibility 10 SM
Temperature 20° C (68° F)
Dewpoint 7° C (45° F)
Relative Humidity 43%
Density Altitude 4,000 feet
Condensation Altitude 9,100 feet
Wind and Runways
Indicated Runway = 27
Headwind = 12 kt
Crosswind = 10 kt
History
 
 
 
More Info
NOAA Forecast
 
 
About Us
Belfort Instrument
 
 
FAA Disclaimer: The data displayed is for advisory purposes only and is not to be used for flight planning or operations. For official data, please call (406) 346-2571 to hear the current automated AWOS voice message.
  METAR 1S3 242338Z AUTO 31015G18KT 10 SM 20/07 A2980